createdAt,value
2023-03-06T00:00:54.670Z,99892.78
2023-03-06T00:03:22.605Z,99889.25
2023-03-06T00:05:49.674Z,99887.50
2023-03-06T00:08:16.530Z,99855.97
2023-03-06T00:10:43.942Z,99883.97
2023-03-06T00:13:18.972Z,99869.03
2023-03-06T00:15:47.058Z,99869.03
2023-03-06T00:18:14.574Z,99887.37
2023-03-06T00:20:42.935Z,99890.84
2023-03-06T00:23:11.158Z,99882.09
2023-03-06T00:25:41.667Z,99885.53
2023-03-06T00:28:08.842Z,99877.63
2023-03-06T00:30:35.950Z,99879.28
2023-03-06T00:33:03.001Z,99880.16
2023-03-06T00:35:30.301Z,99875.81
2023-03-06T00:37:59.743Z,99848.66
2023-03-06T00:40:27.464Z,99853.91
2023-03-06T00:42:54.432Z,99856.50
2023-03-06T00:45:21.427Z,99859.13
2023-03-06T00:47:48.403Z,99863.50
2023-03-06T00:50:15.489Z,99859.19
2023-03-06T00:52:42.580Z,99859.22
2023-03-06T00:55:10.812Z,99839.91
2023-03-06T00:57:38.065Z,99867.97
2023-03-06T01:00:06.224Z,99865.31
2023-03-06T01:02:33.281Z,99862.66
2023-03-06T01:05:00.433Z,99867.72
2023-03-06T01:07:33.445Z,99862.47
2023-03-06T01:10:00.522Z,99864.19
2023-03-06T01:12:27.397Z,99858.09
2023-03-06T01:14:54.331Z,99861.56
2023-03-06T01:17:21.265Z,99834.47
2023-03-06T01:19:48.289Z,99840.63
2023-03-06T01:22:15.095Z,99827.50
2023-03-06T01:24:41.964Z,99845.06
2023-03-06T01:27:08.901Z,99838.97
2023-03-06T01:29:35.782Z,99820.56
2023-03-06T01:32:02.848Z,99816.25
2023-03-06T01:34:29.773Z,99827.66
2023-03-06T01:36:56.644Z,99824.16
2023-03-06T01:39:23.608Z,99823.25
2023-03-06T01:41:50.433Z,99810.13
2023-03-06T01:44:17.335Z,99824.09
2023-03-06T01:46:45.482Z,99825.84
2023-03-06T01:49:30.992Z,99823.22
2023-03-06T01:52:03.234Z,99828.47
2023-03-06T01:54:38.320Z,99818.03
2023-03-06T01:57:13.047Z,99820.59
2023-03-06T01:59:42.438Z,99794.34
2023-03-06T02:02:11.721Z,99818.00
2023-03-06T02:04:40.521Z,99819.72
2023-03-06T02:07:08.915Z,99831.91
2023-03-06T02:09:37.754Z,99821.44
2023-03-06T02:12:14.529Z,99829.28
2023-03-06T02:14:42.516Z,99819.69
2023-03-06T02:17:12.379Z,99797.84
2023-03-06T02:19:48.562Z,99797.00
2023-03-06T02:22:15.524Z,99818.87
2023-03-06T02:25:03.523Z,99808.50
2023-03-06T02:27:31.143Z,99815.47
2023-03-06T02:29:58.117Z,99814.66
2023-03-06T02:32:25.094Z,99812.94
2023-03-06T02:34:59.224Z,99806.84
2023-03-06T02:37:28.757Z,99799.00
2023-03-06T02:40:08.446Z,99819.19
2023-03-06T02:42:35.627Z,99806.09
2023-03-06T02:45:05.359Z,99819.25
2023-03-06T02:47:32.194Z,99823.63
2023-03-06T02:49:59.049Z,99824.53
2023-03-06T02:52:25.924Z,99824.59
2023-03-06T02:54:52.832Z,99826.34
2023-03-06T02:57:19.865Z,99822.97
2023-03-06T02:59:46.835Z,99823.84
2023-03-06T03:02:13.925Z,99822.16
2023-03-06T03:04:40.941Z,99803.75
2023-03-06T03:07:08.295Z,99823.03
2023-03-06T03:09:37.062Z,99825.66
2023-03-06T03:12:06.101Z,99826.53
2023-03-06T03:14:33.227Z,99825.69
2023-03-06T03:17:00.730Z,99819.59
2023-03-06T03:19:42.641Z,99820.47
2023-03-06T03:22:09.653Z,99824.84
2023-03-06T03:24:36.517Z,99820.47
2023-03-06T03:27:03.643Z,99818.75
2023-03-06T03:29:30.625Z,99816.16
2023-03-06T03:31:57.508Z,99810.87
2023-03-06T03:34:24.478Z,99809.16
2023-03-06T03:36:51.301Z,99810.87
2023-03-06T03:39:18.445Z,99801.28
2023-03-06T03:41:45.987Z,99799.53
2023-03-06T03:44:13.143Z,99804.78
2023-03-06T03:46:40.130Z,99805.66
2023-03-06T03:49:07.148Z,99796.94
2023-03-06T03:51:34.126Z,99804.75
2023-03-06T03:54:00.968Z,99801.25
2023-03-06T03:56:27.801Z,99803.87
2023-03-06T03:58:54.770Z,99802.94
2023-03-06T04:01:22.077Z,99788.06
2023-03-06T04:03:49.157Z,99802.91
2023-03-06T04:06:16.228Z,99806.41
2023-03-06T04:08:43.828Z,99806.38
2023-03-06T04:11:10.926Z,99801.19
2023-03-06T04:13:38.300Z,99809.06
2023-03-06T04:16:05.750Z,99807.31
2023-03-06T04:18:33.097Z,99799.47
2023-03-06T04:21:00.114Z,99807.31
2023-03-06T04:23:27.995Z,99792.47
2023-03-06T04:25:55.166Z,99803.00
2023-03-06T04:28:22.240Z,99811.72
2023-03-06T04:31:15.695Z,99816.13
2023-03-06T04:33:42.548Z,99815.22
2023-03-06T04:36:25.377Z,99802.06
2023-03-06T04:38:52.281Z,99790.72
2023-03-06T04:41:19.762Z,99807.34
2023-03-06T04:43:46.677Z,99780.22
2023-03-06T04:46:13.519Z,99805.59
2023-03-06T04:48:40.720Z,99793.34
2023-03-06T04:51:07.718Z,99812.63
2023-03-06T04:53:34.577Z,99803.87
2023-03-06T04:56:01.545Z,99801.28
2023-03-06T04:58:28.871Z,99806.50
2023-03-06T05:00:55.819Z,99812.59
2023-03-06T05:03:22.804Z,99810.00
2023-03-06T05:05:49.632Z,99804.75
2023-03-06T05:08:17.821Z,99799.53
2023-03-06T05:10:45.563Z,99808.22
2023-03-06T05:13:12.779Z,99809.09
2023-03-06T05:15:42.621Z,99802.13
2023-03-06T05:18:15.375Z,99800.34
2023-03-06T05:20:42.378Z,99784.59
2023-03-06T05:23:09.758Z,99812.56
2023-03-06T05:25:39.750Z,99791.56
2023-03-06T05:28:07.596Z,99809.03
2023-03-06T05:30:34.971Z,99803.75
2023-03-06T05:33:01.989Z,99809.00
2023-03-06T05:35:28.955Z,99805.50
2023-03-06T05:37:56.126Z,99783.59
2023-03-06T05:40:23.094Z,99811.59
2023-03-06T05:42:50.100Z,99795.81
2023-03-06T05:45:17.055Z,99797.56
2023-03-06T05:47:44.080Z,99806.28
2023-03-06T05:50:12.037Z,99808.00
2023-03-06T05:52:40.014Z,99778.22
2023-03-06T05:55:07.990Z,99813.19
2023-03-06T05:57:34.931Z,99813.19
2023-03-06T06:00:01.842Z,99814.88
2023-03-06T06:02:30.650Z,99818.41
2023-03-06T06:04:57.631Z,99798.25
2023-03-06T06:07:24.438Z,99813.97
2023-03-06T06:09:53.779Z,99813.13
2023-03-06T06:12:20.889Z,99814.00
2023-03-06T06:14:47.759Z,99799.12
2023-03-06T06:17:14.643Z,99818.31
2023-03-06T06:19:41.611Z,99818.34
2023-03-06T06:22:08.742Z,99818.34
2023-03-06T06:24:35.597Z,99824.44
2023-03-06T06:27:03.964Z,99823.56
2023-03-06T06:29:31.541Z,99827.06
2023-03-06T06:31:59.271Z,99829.72
2023-03-06T06:34:26.492Z,99827.97
2023-03-06T06:36:54.602Z,99818.37
2023-03-06T06:39:23.252Z,99812.25
2023-03-06T06:42:05.505Z,99828.00
2023-03-06T06:44:39.775Z,99832.41
2023-03-06T06:47:24.895Z,99814.06
2023-03-06T06:49:56.493Z,99832.44
2023-03-06T06:52:24.968Z,99831.56
2023-03-06T06:54:52.637Z,99829.81
2023-03-06T06:57:19.954Z,99807.09
2023-03-06T06:59:46.859Z,99833.34
2023-03-06T07:02:16.033Z,99831.63
2023-03-06T07:04:56.562Z,99829.91
2023-03-06T07:07:30.567Z,99831.69
2023-03-06T07:09:58.107Z,99835.13
2023-03-06T07:12:26.022Z,99831.63
2023-03-06T07:14:53.165Z,99840.44
2023-03-06T07:17:20.413Z,99846.53
2023-03-06T07:19:48.409Z,99846.53
2023-03-06T07:22:15.691Z,99848.31
2023-03-06T07:24:43.198Z,99853.50
2023-03-06T07:27:10.411Z,99826.44
2023-03-06T07:29:37.440Z,99851.00
2023-03-06T07:32:04.760Z,99833.41
2023-03-06T07:34:32.048Z,99860.56
2023-03-06T07:36:58.886Z,99857.03
2023-03-06T07:39:25.713Z,99859.69
2023-03-06T07:41:53.526Z,99865.75
2023-03-06T07:44:20.712Z,99863.16
2023-03-06T07:46:47.773Z,99869.28
2023-03-06T07:49:14.667Z,99867.53
2023-03-06T07:51:41.776Z,99864.06
2023-03-06T07:54:08.987Z,99872.78
2023-03-06T07:56:35.937Z,99871.06
2023-03-06T07:59:03.342Z,99867.59
2023-03-06T08:01:30.613Z,99878.94
2023-03-06T08:03:57.836Z,99874.53
2023-03-06T08:06:26.964Z,99876.34
2023-03-06T08:08:55.650Z,99875.50
2023-03-06T08:11:25.000Z,99882.47
2023-03-06T08:13:53.066Z,99874.62
2023-03-06T08:16:25.737Z,99865.00
2023-03-06T08:18:53.280Z,99865.88
2023-03-06T08:21:23.949Z,99865.00
2023-03-06T08:23:51.413Z,99866.78
2023-03-06T08:26:24.654Z,99823.88
2023-03-06T08:28:52.914Z,99881.66
2023-03-06T08:31:36.447Z,99884.22
2023-03-06T08:34:07.720Z,99878.16
2023-03-06T08:36:34.602Z,99872.94
2023-03-06T08:39:02.339Z,99881.66
2023-03-06T08:41:29.436Z,99878.22
2023-03-06T08:43:56.394Z,99863.31
2023-03-06T08:46:26.019Z,99882.56
2023-03-06T08:48:53.263Z,99879.09
2023-03-06T08:51:21.774Z,99878.22
2023-03-06T08:53:50.065Z,99881.72
2023-03-06T08:56:31.532Z,99876.53
2023-03-06T08:59:00.068Z,99876.56
2023-03-06T09:01:29.875Z,99874.78
2023-03-06T09:04:00.071Z,99876.53
2023-03-06T09:06:30.235Z,99879.16
2023-03-06T09:08:57.316Z,99880.03
2023-03-06T09:11:25.527Z,99872.19
2023-03-06T09:13:53.586Z,99864.41
2023-03-06T09:16:20.535Z,99862.69
2023-03-06T09:18:50.439Z,99872.28
2023-03-06T09:21:17.808Z,99863.59
2023-03-06T09:23:45.176Z,99863.59
2023-03-06T09:26:13.001Z,99860.97
2023-03-06T09:28:40.817Z,99848.87
2023-03-06T09:31:19.184Z,99847.19
2023-03-06T09:33:46.812Z,99847.22
2023-03-06T09:36:20.280Z,99850.72
2023-03-06T09:38:48.474Z,99847.25
2023-03-06T09:41:49.608Z,99849.00
2023-03-06T09:44:18.045Z,99854.25
2023-03-06T09:47:00.318Z,99848.13
2023-03-06T09:49:46.025Z,99846.38
2023-03-06T09:52:25.224Z,99841.13
2023-03-06T09:55:01.061Z,99838.47
2023-03-06T09:57:33.163Z,99828.84
2023-03-06T10:00:05.781Z,99839.34
2023-03-06T10:02:44.633Z,99848.94
2023-03-06T10:05:21.714Z,99843.72
2023-03-06T10:08:02.010Z,99840.22
2023-03-06T10:10:49.743Z,99848.09
2023-03-06T10:13:25.347Z,99842.00
2023-03-06T10:15:59.420Z,99848.09
2023-03-06T10:18:26.308Z,99841.09
2023-03-06T10:20:59.459Z,99829.69
2023-03-06T10:23:52.025Z,99836.72
2023-03-06T10:26:49.767Z,99830.59
2023-03-06T10:29:22.866Z,99832.31
2023-03-06T10:32:01.696Z,99828.84
2023-03-06T10:34:36.919Z,99827.94
2023-03-06T10:37:16.773Z,99830.63
2023-03-06T10:39:43.655Z,99827.97
2023-03-06T10:42:10.597Z,99812.16
2023-03-06T10:44:37.512Z,99811.19
2023-03-06T10:47:35.320Z,99805.00
2023-03-06T10:50:06.052Z,99795.31
2023-03-06T10:52:36.094Z,99789.97
2023-03-06T10:55:25.219Z,99792.63
2023-03-06T10:57:52.342Z,99789.09
2023-03-06T11:00:36.006Z,99782.66
2023-03-06T11:03:04.846Z,99780.78
2023-03-06T11:05:31.751Z,99763.22
2023-03-06T11:08:00.439Z,99762.16
2023-03-06T11:10:29.164Z,99756.94
2023-03-06T11:13:21.292Z,99758.50
2023-03-06T11:16:07.782Z,99748.09
2023-03-06T11:18:41.111Z,99745.19
2023-03-06T11:21:43.337Z,99742.19
2023-03-06T11:24:20.130Z,99736.22
2023-03-06T11:26:52.633Z,99730.12
2023-03-06T11:29:43.426Z,99718.78
2023-03-06T11:32:16.923Z,99722.31
2023-03-06T11:34:52.335Z,99711.87
2023-03-06T11:37:43.475Z,99707.47
2023-03-06T11:40:19.483Z,99702.16
2023-03-06T11:43:06.184Z,99703.81
2023-03-06T11:45:57.376Z,99690.63
2023-03-06T11:48:40.628Z,99683.28
2023-03-06T11:51:28.701Z,99678.38
2023-03-06T11:53:58.610Z,99678.38
2023-03-06T11:56:42.981Z,99660.88
2023-03-06T11:59:31.328Z,99663.59
2023-03-06T12:02:26.351Z,99665.06
2023-03-06T12:05:18.182Z,99663.25
2023-03-06T12:08:23.735Z,99659.34
2023-03-06T12:14:02.144Z,99651.22
2023-03-06T12:16:42.929Z,99644.19
2023-03-06T12:19:19.851Z,99646.06
2023-03-06T12:22:09.324Z,99639.09
2023-03-06T12:24:55.214Z,99641.78
2023-03-06T12:27:52.295Z,99633.88
2023-03-06T12:30:31.138Z,99635.66
2023-03-06T12:33:11.464Z,99635.69
2023-03-06T12:36:02.494Z,99639.16
2023-03-06T12:38:47.267Z,99628.72
2023-03-06T12:41:51.984Z,99628.75
2023-03-06T12:44:34.070Z,99628.75
2023-03-06T12:47:10.454Z,99622.63
2023-03-06T12:49:51.777Z,99615.66
2023-03-06T12:52:30.703Z,99622.59
2023-03-06T12:55:01.349Z,99612.94
2023-03-06T12:57:29.886Z,99611.16
2023-03-06T12:59:56.829Z,99608.50
2023-03-06T13:02:46.246Z,99614.50
2023-03-06T13:05:35.134Z,99604.72
2023-03-06T13:08:20.583Z,99617.91
2023-03-06T13:11:20.213Z,99611.84
2023-03-06T13:13:49.065Z,99597.03
2023-03-06T13:16:16.051Z,99600.41
2023-03-06T13:18:42.977Z,99597.78
2023-03-06T13:21:42.514Z,99599.66
2023-03-06T13:24:27.248Z,99591.75
2023-03-06T13:27:06.443Z,99590.03
2023-03-06T13:29:36.428Z,99586.50
2023-03-06T13:32:03.572Z,99587.25
2023-03-06T13:34:47.067Z,99579.31
2023-03-06T13:37:14.020Z,99579.31
2023-03-06T13:39:56.123Z,99568.03
2023-03-06T13:42:36.773Z,99575.72
2023-03-06T13:45:22.967Z,99576.44
2023-03-06T13:50:46.869Z,99576.28
2023-03-06T13:54:00.233Z,99564.13
2023-03-06T13:56:58.398Z,99554.44
2023-03-06T14:00:03.047Z,99571.22
2023-03-06T14:02:41.284Z,99572.44
2023-03-06T14:05:14.527Z,99565.38
2023-03-06T14:07:46.628Z,99572.41
2023-03-06T14:10:13.591Z,99567.22
2023-03-06T14:13:00.853Z,99561.13
2023-03-06T14:15:36.534Z,99562.09
2023-03-06T14:18:24.488Z,99563.12
2023-03-06T14:21:01.026Z,99561.34
2023-03-06T14:23:35.388Z,99548.28
2023-03-06T14:26:08.461Z,99546.47
2023-03-06T14:28:36.547Z,99541.22
2023-03-06T14:31:05.996Z,99535.03
2023-03-06T14:33:43.239Z,99535.03
2023-03-06T14:36:19.982Z,99529.72
2023-03-06T14:38:51.663Z,99532.34
2023-03-06T14:41:27.466Z,99529.72
2023-03-06T14:44:19.257Z,99529.72
2023-03-06T14:46:48.805Z,99525.41
2023-03-06T14:49:18.280Z,99521.81
2023-03-06T14:51:54.677Z,99523.53
2023-03-06T14:54:26.348Z,99530.56
2023-03-06T14:57:02.974Z,99521.00
2023-03-06T14:59:34.934Z,99520.94
2023-03-06T15:02:05.759Z,99510.50
2023-03-06T15:04:55.103Z,99523.59
2023-03-06T15:07:27.818Z,99518.31
2023-03-06T15:09:55.233Z,99524.44
2023-03-06T15:12:29.818Z,99518.31
2023-03-06T15:15:06.255Z,99513.09
2023-03-06T15:17:45.093Z,99513.97
2023-03-06T15:20:36.801Z,99502.66
2023-03-06T15:23:13.497Z,99508.75
2023-03-06T15:25:40.383Z,99505.25
2023-03-06T15:28:32.754Z,99505.25
2023-03-06T15:31:22.323Z,99500.91
2023-03-06T15:34:16.043Z,99500.97
2023-03-06T15:36:54.672Z,99499.31
2023-03-06T15:39:32.182Z,99492.31
2023-03-06T15:42:19.543Z,99507.16
2023-03-06T15:44:49.168Z,99508.13
2023-03-06T15:47:16.155Z,99509.09
2023-03-06T15:49:43.641Z,99505.66
2023-03-06T15:52:11.055Z,99501.34
2023-03-06T15:54:38.547Z,99499.56
2023-03-06T15:57:08.826Z,99506.56
2023-03-06T15:59:43.028Z,99504.87
2023-03-06T16:02:22.018Z,99512.75
2023-03-06T16:04:49.899Z,99511.94
2023-03-06T16:07:17.351Z,99511.06
2023-03-06T16:09:45.004Z,99516.34
2023-03-06T16:12:21.168Z,99513.75
2023-03-06T16:14:48.890Z,99505.03
2023-03-06T16:17:17.198Z,99503.25
2023-03-06T16:19:44.725Z,99505.87
2023-03-06T16:22:12.489Z,99511.16
2023-03-06T16:24:39.531Z,99512.91
2023-03-06T16:27:07.075Z,99528.69
2023-03-06T16:29:34.113Z,99527.81
2023-03-06T16:32:02.095Z,99523.44
2023-03-06T16:34:29.256Z,99530.47
2023-03-06T16:36:56.684Z,99523.50
2023-03-06T16:39:25.259Z,99527.87
2023-03-06T16:41:52.653Z,99519.09
2023-03-06T16:44:23.125Z,99520.91
2023-03-06T16:46:50.879Z,99523.53
2023-03-06T16:49:20.980Z,99526.16
2023-03-06T16:51:49.922Z,99516.56
2023-03-06T16:54:17.655Z,99524.50
2023-03-06T16:56:45.498Z,99527.97
2023-03-06T16:59:13.458Z,99532.38
2023-03-06T17:01:50.554Z,99528.87
2023-03-06T17:04:18.283Z,99526.25
2023-03-06T17:06:45.705Z,99526.28
2023-03-06T17:09:14.435Z,99528.03
2023-03-06T17:11:43.535Z,99522.75
2023-03-06T17:14:10.422Z,99527.13
2023-03-06T17:16:40.735Z,99521.03
2023-03-06T17:19:07.945Z,99505.34
2023-03-06T17:21:38.457Z,99528.87
2023-03-06T17:24:10.208Z,99517.53
2023-03-06T17:26:39.284Z,99514.03
2023-03-06T17:29:07.272Z,99507.94
2023-03-06T17:31:36.853Z,99494.84
2023-03-06T17:34:04.446Z,99499.19
2023-03-06T17:36:32.371Z,99507.06
2023-03-06T17:39:02.125Z,99506.22
2023-03-06T17:41:30.346Z,99501.84
2023-03-06T17:43:58.716Z,99500.16
2023-03-06T17:46:27.283Z,99465.25
2023-03-06T17:48:57.801Z,99501.03
2023-03-06T17:51:25.894Z,99494.97
2023-03-06T17:53:55.786Z,99489.78
2023-03-06T17:56:23.824Z,99508.09
2023-03-06T17:58:53.020Z,99489.81
2023-03-06T18:01:25.014Z,99480.19
2023-03-06T18:03:53.252Z,99505.47
2023-03-06T18:06:22.597Z,99514.22
2023-03-06T18:08:52.708Z,99510.75
2023-03-06T18:11:21.894Z,99513.34
2023-03-06T18:13:50.228Z,99514.25
2023-03-06T18:16:21.447Z,99500.31
2023-03-06T18:18:57.023Z,99505.50
2023-03-06T18:21:25.856Z,99497.66
2023-03-06T18:23:55.470Z,99487.19
2023-03-06T18:26:30.456Z,99488.06
2023-03-06T18:29:04.157Z,99510.81
2023-03-06T18:31:36.679Z,99507.34
2023-03-06T18:34:08.395Z,99508.22
2023-03-06T18:36:38.650Z,99489.06
2023-03-06T18:39:10.160Z,99503.88
2023-03-06T18:41:38.988Z,99497.75
2023-03-06T18:44:08.768Z,99500.41
2023-03-06T18:46:38.840Z,99503.03
2023-03-06T18:49:07.197Z,99499.53
2023-03-06T18:51:36.024Z,99493.41
2023-03-06T18:54:05.476Z,99489.03
2023-03-06T18:56:34.170Z,99482.06
2023-03-06T18:59:07.051Z,99476.81
2023-03-06T19:01:35.155Z,99485.53
2023-03-06T19:04:04.571Z,99487.31
2023-03-06T19:06:33.324Z,99486.47
2023-03-06T19:09:02.831Z,99447.22
2023-03-06T19:11:32.433Z,99488.25
2023-03-06T19:14:02.110Z,99492.63
2023-03-06T19:16:31.776Z,99489.13
2023-03-06T19:19:00.343Z,99492.63
2023-03-06T19:21:31.965Z,99485.69
2023-03-06T19:23:59.571Z,99500.53
2023-03-06T19:26:28.270Z,99495.28
2023-03-06T19:28:56.564Z,99483.97
2023-03-06T19:31:27.348Z,99484.81
2023-03-06T19:33:57.510Z,99494.44
2023-03-06T19:36:31.232Z,99496.19
2023-03-06T19:39:03.465Z,99492.69
2023-03-06T19:41:33.486Z,99469.13
2023-03-06T19:44:08.609Z,99461.28
2023-03-06T19:46:36.911Z,99480.47
2023-03-06T19:49:13.306Z,99478.72
2023-03-06T19:51:41.892Z,99448.19
2023-03-06T19:54:13.199Z,99469.13
2023-03-06T19:56:40.980Z,99473.50
2023-03-06T19:59:13.258Z,99469.13
2023-03-06T20:01:41.924Z,99461.28
2023-03-06T20:04:10.187Z,99452.59
2023-03-06T20:06:39.420Z,99462.16
2023-03-06T20:09:09.864Z,99472.63
2023-03-06T20:11:39.028Z,99465.66
2023-03-06T20:14:10.400Z,99479.59
2023-03-06T20:16:39.062Z,99476.97
2023-03-06T20:19:07.626Z,99486.59
2023-03-06T20:21:37.937Z,99477.84
2023-03-06T20:24:07.183Z,99474.38
2023-03-06T20:26:36.873Z,99492.69
2023-03-06T20:29:05.484Z,99491.81
2023-03-06T20:31:34.239Z,99497.03
2023-03-06T20:34:03.342Z,99508.34
2023-03-06T20:36:36.942Z,99490.00
2023-03-06T20:39:09.475Z,99517.94
2023-03-06T20:41:38.108Z,99505.72
2023-03-06T20:44:11.476Z,99481.34
2023-03-06T20:46:41.292Z,99494.41
2023-03-06T20:49:10.309Z,99488.28
2023-03-06T20:51:39.898Z,99473.50
2023-03-06T20:54:11.396Z,99467.37
2023-03-06T20:56:42.250Z,99468.25
2023-03-06T20:59:12.555Z,99455.16
2023-03-06T21:01:42.622Z,99483.91
2023-03-06T21:04:13.724Z,99482.16
2023-03-06T21:06:45.932Z,99492.63
2023-03-06T21:09:16.036Z,99484.75
2023-03-06T21:11:44.366Z,99487.38
2023-03-06T21:14:13.338Z,99472.47
2023-03-06T21:16:41.382Z,99480.31
2023-03-06T21:19:09.338Z,99489.03
2023-03-06T21:21:36.799Z,99494.22
2023-03-06T21:24:04.298Z,99487.22
2023-03-06T21:26:34.107Z,99481.06
2023-03-06T21:29:02.544Z,99469.69
2023-03-06T21:31:30.508Z,99495.00
2023-03-06T21:33:59.183Z,99497.59
2023-03-06T21:36:27.226Z,99480.13
2023-03-06T21:38:54.866Z,99509.84
2023-03-06T21:41:28.084Z,99515.94
2023-03-06T21:44:00.809Z,99522.94
2023-03-06T21:46:28.590Z,99516.84
2023-03-06T21:48:57.424Z,99482.84
2023-03-06T21:51:26.182Z,99510.75
2023-03-06T21:53:54.452Z,99506.41
2023-03-06T21:56:25.073Z,99498.56
2023-03-06T21:58:52.344Z,99495.94
2023-03-06T22:01:24.915Z,99481.06
2023-03-06T22:03:52.753Z,99496.81
2023-03-06T22:06:23.814Z,99493.28
2023-03-06T22:08:51.381Z,99495.94
2023-03-06T22:11:20.889Z,99489.81
2023-03-06T22:13:48.658Z,99492.41
2023-03-06T22:16:17.263Z,99492.41
2023-03-06T22:18:52.272Z,99487.16
2023-03-06T22:21:22.786Z,99483.66
2023-03-06T22:23:51.485Z,99494.16
2023-03-06T22:26:19.412Z,99496.81
2023-03-06T22:28:46.787Z,99495.03
2023-03-06T22:31:16.994Z,99456.62
2023-03-06T22:33:44.434Z,99477.56
2023-03-06T22:36:15.742Z,99484.59
2023-03-06T22:38:44.813Z,99479.41
2023-03-06T22:41:14.442Z,99465.47
2023-03-06T22:43:42.055Z,99484.63
2023-03-06T22:46:12.459Z,99498.53
2023-03-06T22:48:40.302Z,99470.62
2023-03-06T22:51:16.178Z,99499.38
2023-03-06T22:53:44.774Z,99495.06
2023-03-06T22:56:15.773Z,99489.84
2023-03-06T22:58:45.076Z,99489.84
2023-03-06T23:01:21.536Z,99472.41
2023-03-06T23:03:51.303Z,99487.19
2023-03-06T23:06:20.287Z,99491.59
2023-03-06T23:09:09.434Z,99485.44
2023-03-06T23:11:36.870Z,99497.59
2023-03-06T23:14:05.932Z,99474.03
2023-03-06T23:16:33.188Z,99503.66
2023-03-06T23:19:00.290Z,99474.81
2023-03-06T23:21:27.217Z,99502.72
2023-03-06T23:23:54.687Z,99510.56
2023-03-06T23:26:24.852Z,99502.59
2023-03-06T23:28:52.951Z,99514.78
2023-03-06T23:31:23.044Z,99521.72
2023-03-06T23:33:50.627Z,99508.63
2023-03-06T23:36:18.803Z,99529.41
2023-03-06T23:38:46.573Z,99487.62
2023-03-06T23:41:16.084Z,99510.25
2023-03-06T23:43:43.747Z,99501.53
2023-03-06T23:46:10.782Z,99515.44
2023-03-06T23:48:40.658Z,99496.25
2023-03-06T23:51:19.096Z,99507.63
2023-03-06T23:53:48.344Z,99504.06
2023-03-06T23:56:15.512Z,99511.88
2023-03-06T23:58:42.954Z,99508.41
